aviador You're here:

LFKB Decoded Metar

BASTIA in CORSE ISL.
Report Time2018-06-17 23:30:00
UTC Time2018-06-17 23:54:11
Flight Rules vfr VFR
Wind240° at 04 kt
W.Decomp.*RWY 16: 0.8 kt HW 3.9 kt RCW
W.Rank240° ranks 4
Current wind is below 240° avg. (4.8)
Visibility9999 m
Phenomena:N/A
Clouds:N/A
Expected CloudBase > 1,200 ft AGL from Temp-Dew spread
CeilingNone
Temp20°C (ISA +5)
Dew Point17°C (83% RH)
QNH1014 hPa
Density Alt856 ft
Elevation39 ft
Report Wrong Elevation
Raw Report
LFKB 172330Z AUTO 24004KT CAVOK 20/17 Q1014 NOSIG=

Extra information for LFKB:More info

Metar Taf Metar & Taf Last 4 Metars F.Rules Stats Wind Profile Meteogram Temp Stats Airport Information Weather charts Add Link Nearby VenuesMetar ALERT Operation Metar Decoded Social comments